sensor_id;sensor_type;location;lat;lon;timestamp;pressure;altitude;pressure_sealevel;temperature
69545;BMP180;56766;52.260;20.746;2023-06-26T00:00:23;100437.80;;;12.62
69545;BMP180;56766;52.260;20.746;2023-06-26T00:03:10;100436.20;;;12.64
69545;BMP180;56766;52.260;20.746;2023-06-26T00:05:41;100442.60;;;12.60
69545;BMP180;56766;52.260;20.746;2023-06-26T00:08:09;100437.80;;;12.60
69545;BMP180;56766;52.260;20.746;2023-06-26T00:10:35;100442.20;;;12.60
69545;BMP180;56766;52.260;20.746;2023-06-26T00:13:02;100447.60;;;12.58
69545;BMP180;56766;52.260;20.746;2023-06-26T00:15:29;100450.60;;;12.50
69545;BMP180;56766;52.260;20.746;2023-06-26T00:17:58;100445.80;;;12.50
69545;BMP180;56766;52.260;20.746;2023-06-26T00:20:25;100443.40;;;12.50
69545;BMP180;56766;52.260;20.746;2023-06-26T00:22:52;100443.60;;;12.50
69545;BMP180;56766;52.260;20.746;2023-06-26T00:25:20;100443.20;;;12.50
69545;BMP180;56766;52.260;20.746;2023-06-26T00:27:46;100442.40;;;12.50
69545;BMP180;56766;52.260;20.746;2023-06-26T00:30:13;100441.60;;;12.40
69545;BMP180;56766;52.260;20.746;2023-06-26T00:32:40;100442.20;;;12.40
69545;BMP180;56766;52.260;20.746;2023-06-26T00:35:06;100442.60;;;12.30
69545;BMP180;56766;52.260;20.746;2023-06-26T00:37:33;100444.60;;;12.30
69545;BMP180;56766;52.260;20.746;2023-06-26T00:40:00;100439.20;;;12.30
69545;BMP180;56766;52.260;20.746;2023-06-26T00:42:27;100442.60;;;12.20
69545;BMP180;56766;52.260;20.746;2023-06-26T00:44:54;100439.00;;;12.20
69545;BMP180;56766;52.260;20.746;2023-06-26T00:47:20;100443.00;;;12.20
69545;BMP180;56766;52.260;20.746;2023-06-26T00:49:47;100440.20;;;12.12
69545;BMP180;56766;52.260;20.746;2023-06-26T00:52:14;100439.00;;;12.12
69545;BMP180;56766;52.260;20.746;2023-06-26T00:54:43;100433.60;;;12.10
69545;BMP180;56766;52.260;20.746;2023-06-26T00:57:10;100435.80;;;12.10
69545;BMP180;56766;52.260;20.746;2023-06-26T00:59:37;100430.20;;;12.10
69545;BMP180;56766;52.260;20.746;2023-06-26T01:02:04;100428.20;;;12.10
69545;BMP180;56766;52.260;20.746;2023-06-26T01:04:32;100424.80;;;12.00
69545;BMP180;56766;52.260;20.746;2023-06-26T01:07:01;100421.00;;;12.00
69545;BMP180;56766;52.260;20.746;2023-06-26T01:09:31;100424.20;;;11.90
69545;BMP180;56766;52.260;20.746;2023-06-26T01:11:58;100417.00;;;11.80
69545;BMP180;56766;52.260;20.746;2023-06-26T01:14:25;100414.60;;;11.80
69545;BMP180;56766;52.260;20.746;2023-06-26T01:16:52;100412.20;;;11.80
69545;BMP180;56766;52.260;20.746;2023-06-26T01:19:30;100414.60;;;11.80
69545;BMP180;56766;52.260;20.746;2023-06-26T01:27:50;100403.80;;;11.80
69545;BMP180;56766;52.260;20.746;2023-06-26T01:30:21;100408.20;;;11.70
69545;BMP180;56766;52.260;20.746;2023-06-26T01:32:49;100403.80;;;11.70
69545;BMP180;56766;52.260;20.746;2023-06-26T01:35:17;100407.20;;;11.60
69545;BMP180;56766;52.260;20.746;2023-06-26T01:37:44;100401.40;;;11.60
69545;BMP180;56766;52.260;20.746;2023-06-26T01:40:11;100398.60;;;11.60
69545;BMP180;56766;52.260;20.746;2023-06-26T01:42:37;100396.40;;;11.60
69545;BMP180;56766;52.260;20.746;2023-06-26T01:45:16;100392.60;;;11.60
69545;BMP180;56766;52.260;20.746;2023-06-26T01:47:50;100392.00;;;11.60
69545;BMP180;56766;52.260;20.746;2023-06-26T01:50:24;100393.00;;;11.60
69545;BMP180;56766;52.260;20.746;2023-06-26T01:53:10;100391.80;;;11.60
69545;BMP180;56766;52.260;20.746;2023-06-26T01:58:16;100393.40;;;11.60
69545;BMP180;56766;52.260;20.746;2023-06-26T02:00:43;100391.60;;;11.56
69545;BMP180;56766;52.260;20.746;2023-06-26T02:03:10;100385.20;;;11.50
69545;BMP180;56766;52.260;20.746;2023-06-26T02:05:37;100387.60;;;11.50
69545;BMP180;56766;52.260;20.746;2023-06-26T02:08:04;100387.80;;;11.50
69545;BMP180;56766;52.260;20.746;2023-06-26T02:10:31;100390.00;;;11.50
69545;BMP180;56766;52.260;20.746;2023-06-26T02:12:57;100383.40;;;11.50
69545;BMP180;56766;52.260;20.746;2023-06-26T02:15:24;100381.00;;;11.40
69545;BMP180;56766;52.260;20.746;2023-06-26T02:17:51;100380.80;;;11.40
69545;BMP180;56766;52.260;20.746;2023-06-26T02:20:18;100385.60;;;11.40
69545;BMP180;56766;52.260;20.746;2023-06-26T02:22:45;100380.20;;;11.42
69545;BMP180;56766;52.260;20.746;2023-06-26T02:25:11;100379.00;;;11.50
69545;BMP180;56766;52.260;20.746;2023-06-26T02:27:39;100379.60;;;11.50
69545;BMP180;56766;52.260;20.746;2023-06-26T02:30:08;100374.80;;;11.50
69545;BMP180;56766;52.260;20.746;2023-06-26T02:32:35;100371.20;;;11.50
69545;BMP180;56766;52.260;20.746;2023-06-26T02:35:02;100367.40;;;11.50
69545;BMP180;56766;52.260;20.746;2023-06-26T02:37:28;100370.80;;;11.50
69545;BMP180;56766;52.260;20.746;2023-06-26T02:39:55;100368.20;;;11.50
69545;BMP180;56766;52.260;20.746;2023-06-26T02:42:22;100376.60;;;11.50
69545;BMP180;56766;52.260;20.746;2023-06-26T02:44:48;100372.20;;;11.50
69545;BMP180;56766;52.260;20.746;2023-06-26T02:47:15;100370.60;;;11.52
69545;BMP180;56766;52.260;20.746;2023-06-26T02:49:41;100376.40;;;11.60
69545;BMP180;56766;52.260;20.746;2023-06-26T02:52:08;100378.40;;;11.60
69545;BMP180;56766;52.260;20.746;2023-06-26T02:54:35;100376.20;;;11.60
69545;BMP180;56766;52.260;20.746;2023-06-26T02:57:02;100378.20;;;11.66
69545;BMP180;56766;52.260;20.746;2023-06-26T02:59:29;100376.80;;;11.70
69545;BMP180;56766;52.260;20.746;2023-06-26T03:01:56;100380.20;;;11.70
69545;BMP180;56766;52.260;20.746;2023-06-26T03:04:22;100375.60;;;11.80
69545;BMP180;56766;52.260;20.746;2023-06-26T03:06:49;100374.20;;;11.80
69545;BMP180;56766;52.260;20.746;2023-06-26T03:09:16;100383.20;;;11.90
69545;BMP180;56766;52.260;20.746;2023-06-26T03:11:43;100383.40;;;12.00
69545;BMP180;56766;52.260;20.746;2023-06-26T03:14:10;100377.00;;;12.06
69545;BMP180;56766;52.260;20.746;2023-06-26T03:16:36;100383.60;;;12.28
69545;BMP180;56766;52.260;20.746;2023-06-26T03:19:03;100381.60;;;12.40
69545;BMP180;56766;52.260;20.746;2023-06-26T03:21:31;100380.20;;;12.52
69545;BMP180;56766;52.260;20.746;2023-06-26T03:23:58;100376.00;;;12.82
69545;BMP180;56766;52.260;20.746;2023-06-26T03:26:25;100378.80;;;13.52
69545;BMP180;56766;52.260;20.746;2023-06-26T03:28:54;100377.20;;;14.26
69545;BMP180;56766;52.260;20.746;2023-06-26T03:31:21;100379.80;;;14.94
69545;BMP180;56766;52.260;20.746;2023-06-26T03:33:48;100379.80;;;15.60
69545;BMP180;56766;52.260;20.746;2023-06-26T03:36:15;100383.20;;;16.28
69545;BMP180;56766;52.260;20.746;2023-06-26T03:38:41;100379.00;;;16.86
69545;BMP180;56766;52.260;20.746;2023-06-26T03:41:08;100383.80;;;17.34
69545;BMP180;56766;52.260;20.746;2023-06-26T03:43:35;100374.60;;;17.80
69545;BMP180;56766;52.260;20.746;2023-06-26T03:46:02;100378.20;;;18.26
69545;BMP180;56766;52.260;20.746;2023-06-26T03:48:29;100379.20;;;18.72
69545;BMP180;56766;52.260;20.746;2023-06-26T03:50:56;100378.60;;;19.00
69545;BMP180;56766;52.260;20.746;2023-06-26T03:53:22;100384.60;;;18.88
69545;BMP180;56766;52.260;20.746;2023-06-26T03:55:50;100379.80;;;18.60
69545;BMP180;56766;52.260;20.746;2023-06-26T03:58:16;100380.80;;;18.68
69545;BMP180;56766;52.260;20.746;2023-06-26T04:00:43;100380.60;;;18.50
69545;BMP180;56766;52.260;20.746;2023-06-26T04:03:10;100376.60;;;18.40
69545;BMP180;56766;52.260;20.746;2023-06-26T04:05:37;100370.00;;;18.28
69545;BMP180;56766;52.260;20.746;2023-06-26T04:08:04;100373.80;;;18.20
69545;BMP180;56766;52.260;20.746;2023-06-26T04:10:31;100369.20;;;18.08
69545;BMP180;56766;52.260;20.746;2023-06-26T04:12:58;100370.00;;;18.00
69545;BMP180;56766;52.260;20.746;2023-06-26T04:15:24;100373.80;;;18.00
69545;BMP180;56766;52.260;20.746;2023-06-26T04:17:51;100375.20;;;18.00
69545;BMP180;56766;52.260;20.746;2023-06-26T04:20:17;100378.80;;;18.10
69545;BMP180;56766;52.260;20.746;2023-06-26T04:22:44;100380.00;;;18.20
69545;BMP180;56766;52.260;20.746;2023-06-26T04:25:11;100377.60;;;18.44
69545;BMP180;56766;52.260;20.746;2023-06-26T04:27:38;100374.20;;;18.84
69545;BMP180;56766;52.260;20.746;2023-06-26T04:30:06;100371.60;;;19.42
69545;BMP180;56766;52.260;20.746;2023-06-26T04:32:33;100375.80;;;19.96
69545;BMP180;56766;52.260;20.746;2023-06-26T04:34:59;100376.80;;;20.50
69545;BMP180;56766;52.260;20.746;2023-06-26T04:37:26;100377.40;;;21.00
69545;BMP180;56766;52.260;20.746;2023-06-26T04:39:53;100374.40;;;21.50
69545;BMP180;56766;52.260;20.746;2023-06-26T04:42:19;100375.00;;;21.96
69545;BMP180;56766;52.260;20.746;2023-06-26T04:44:48;100373.00;;;22.40
69545;BMP180;56766;52.260;20.746;2023-06-26T04:47:15;100373.40;;;22.70
69545;BMP180;56766;52.260;20.746;2023-06-26T04:49:42;100369.00;;;23.04
69545;BMP180;56766;52.260;20.746;2023-06-26T04:52:13;100371.20;;;23.32
69545;BMP180;56766;52.260;20.746;2023-06-26T04:54:40;100369.20;;;23.70
69545;BMP180;56766;52.260;20.746;2023-06-26T04:57:06;100364.80;;;24.10
69545;BMP180;56766;52.260;20.746;2023-06-26T04:59:35;100364.60;;;24.40
69545;BMP180;56766;52.260;20.746;2023-06-26T05:02:02;100366.40;;;24.68
69545;BMP180;56766;52.260;20.746;2023-06-26T05:04:30;100362.40;;;24.98
69545;BMP180;56766;52.260;20.746;2023-06-26T05:06:56;100360.60;;;25.20
69545;BMP180;56766;52.260;20.746;2023-06-26T05:09:23;100361.00;;;25.40
69545;BMP180;56766;52.260;20.746;2023-06-26T05:11:50;100359.20;;;25.44
69545;BMP180;56766;52.260;20.746;2023-06-26T05:14:16;100359.60;;;25.60
69545;BMP180;56766;52.260;20.746;2023-06-26T05:16:43;100357.60;;;25.70
69545;BMP180;56766;52.260;20.746;2023-06-26T05:19:10;100364.40;;;25.80
69545;BMP180;56766;52.260;20.746;2023-06-26T05:21:37;100359.00;;;25.80
69545;BMP180;56766;52.260;20.746;2023-06-26T05:24:05;100361.60;;;25.80
69545;BMP180;56766;52.260;20.746;2023-06-26T05:26:33;100361.60;;;25.70
69545;BMP180;56766;52.260;20.746;2023-06-26T05:29:00;100358.80;;;25.70
69545;BMP180;56766;52.260;20.746;2023-06-26T05:31:27;100356.20;;;25.72
69545;BMP180;56766;52.260;20.746;2023-06-26T05:33:57;100355.20;;;25.78
69545;BMP180;56766;52.260;20.746;2023-06-26T05:36:26;100353.00;;;25.70
69545;BMP180;56766;52.260;20.746;2023-06-26T05:38:55;100355.60;;;25.60
69545;BMP180;56766;52.260;20.746;2023-06-26T05:41:23;100351.60;;;25.60
69545;BMP180;56766;52.260;20.746;2023-06-26T05:43:50;100359.60;;;25.46
69545;BMP180;56766;52.260;20.746;2023-06-26T05:46:16;100354.00;;;25.40
69545;BMP180;56766;52.260;20.746;2023-06-26T05:48:43;100354.20;;;25.30
69545;BMP180;56766;52.260;20.746;2023-06-26T05:51:10;100355.60;;;25.20
69545;BMP180;56766;52.260;20.746;2023-06-26T05:53:37;100355.00;;;25.20
69545;BMP180;56766;52.260;20.746;2023-06-26T05:56:04;100353.80;;;25.10
69545;BMP180;56766;52.260;20.746;2023-06-26T05:58:32;100351.00;;;25.10
69545;BMP180;56766;52.260;20.746;2023-06-26T06:00:59;100347.40;;;25.08
69545;BMP180;56766;52.260;20.746;2023-06-26T06:03:26;100347.80;;;25.00
69545;BMP180;56766;52.260;20.746;2023-06-26T06:05:53;100353.40;;;24.94
69545;BMP180;56766;52.260;20.746;2023-06-26T06:08:19;100348.40;;;24.90
69545;BMP180;56766;52.260;20.746;2023-06-26T06:10:46;100351.40;;;24.80
69545;BMP180;56766;52.260;20.746;2023-06-26T06:13:13;100349.60;;;24.84
69545;BMP180;56766;52.260;20.746;2023-06-26T06:15:39;100350.80;;;24.80
69545;BMP180;56766;52.260;20.746;2023-06-26T06:18:06;100350.20;;;24.70
69545;BMP180;56766;52.260;20.746;2023-06-26T06:20:33;100346.60;;;24.70
69545;BMP180;56766;52.260;20.746;2023-06-26T06:22:59;100347.00;;;24.70
69545;BMP180;56766;52.260;20.746;2023-06-26T06:25:26;100343.40;;;24.70
69545;BMP180;56766;52.260;20.746;2023-06-26T06:27:53;100344.60;;;24.80
69545;BMP180;56766;52.260;20.746;2023-06-26T06:30:19;100345.00;;;24.80
69545;BMP180;56766;52.260;20.746;2023-06-26T06:32:46;100345.00;;;24.80
69545;BMP180;56766;52.260;20.746;2023-06-26T06:35:20;100341.80;;;24.84
69545;BMP180;56766;52.260;20.746;2023-06-26T06:37:47;100340.00;;;24.90
69545;BMP180;56766;52.260;20.746;2023-06-26T06:40:14;100341.40;;;24.98
69545;BMP180;56766;52.260;20.746;2023-06-26T06:42:41;100347.80;;;25.00
69545;BMP180;56766;52.260;20.746;2023-06-26T06:45:09;100338.40;;;25.10
69545;BMP180;56766;52.260;20.746;2023-06-26T06:47:36;100332.60;;;25.10
69545;BMP180;56766;52.260;20.746;2023-06-26T06:50:03;100334.60;;;25.10
69545;BMP180;56766;52.260;20.746;2023-06-26T06:52:37;100333.20;;;25.20
69545;BMP180;56766;52.260;20.746;2023-06-26T06:55:05;100328.80;;;25.40
69545;BMP180;56766;52.260;20.746;2023-06-26T06:57:39;100330.00;;;25.50
69545;BMP180;56766;52.260;20.746;2023-06-26T07:00:10;100331.60;;;25.62
69545;BMP180;56766;52.260;20.746;2023-06-26T07:02:40;100326.80;;;25.94
69545;BMP180;56766;52.260;20.746;2023-06-26T07:05:07;100328.80;;;26.20
69545;BMP180;56766;52.260;20.746;2023-06-26T07:07:35;100326.00;;;26.40
69545;BMP180;56766;52.260;20.746;2023-06-26T07:10:09;100323.20;;;26.60
69545;BMP180;56766;52.260;20.746;2023-06-26T07:12:36;100325.40;;;26.76
69545;BMP180;56766;52.260;20.746;2023-06-26T07:15:05;100322.00;;;26.90
69545;BMP180;56766;52.260;20.746;2023-06-26T07:17:34;100320.20;;;27.00
69545;BMP180;56766;52.260;20.746;2023-06-26T07:20:02;100325.60;;;26.94
69545;BMP180;56766;52.260;20.746;2023-06-26T07:22:34;100319.40;;;27.00
69545;BMP180;56766;52.260;20.746;2023-06-26T07:25:00;100321.20;;;27.00
69545;BMP180;56766;52.260;20.746;2023-06-26T07:27:27;100313.60;;;27.00
69545;BMP180;56766;52.260;20.746;2023-06-26T07:29:54;100314.20;;;26.96
69545;BMP180;56766;52.260;20.746;2023-06-26T07:32:20;100315.00;;;27.00
69545;BMP180;56766;52.260;20.746;2023-06-26T07:34:47;100317.80;;;27.00
69545;BMP180;56766;52.260;20.746;2023-06-26T07:37:13;100315.40;;;27.00
69545;BMP180;56766;52.260;20.746;2023-06-26T07:39:40;100310.80;;;27.10
69545;BMP180;56766;52.260;20.746;2023-06-26T07:42:07;100317.20;;;27.10
69545;BMP180;56766;52.260;20.746;2023-06-26T07:44:33;100317.60;;;27.20
69545;BMP180;56766;52.260;20.746;2023-06-26T07:47:00;100312.80;;;27.30
69545;BMP180;56766;52.260;20.746;2023-06-26T07:49:27;100310.60;;;27.30
69545;BMP180;56766;52.260;20.746;2023-06-26T07:51:54;100313.20;;;27.30
69545;BMP180;56766;52.260;20.746;2023-06-26T07:54:20;100319.00;;;27.30
69545;BMP180;56766;52.260;20.746;2023-06-26T07:57:01;100318.00;;;27.30
69545;BMP180;56766;52.260;20.746;2023-06-26T07:59:29;100316.60;;;27.30
69545;BMP180;56766;52.260;20.746;2023-06-26T08:01:57;100310.40;;;27.30
69545;BMP180;56766;52.260;20.746;2023-06-26T08:04:27;100310.20;;;27.30
69545;BMP180;56766;52.260;20.746;2023-06-26T08:06:59;100313.20;;;27.48
69545;BMP180;56766;52.260;20.746;2023-06-26T08:09:29;100310.40;;;27.60
69545;BMP180;56766;52.260;20.746;2023-06-26T08:11:56;100312.40;;;27.76
69545;BMP180;56766;52.260;20.746;2023-06-26T08:14:24;100308.20;;;28.00
69545;BMP180;56766;52.260;20.746;2023-06-26T08:16:51;100309.80;;;28.20
69545;BMP180;56766;52.260;20.746;2023-06-26T08:19:18;100305.80;;;28.40
69545;BMP180;56766;52.260;20.746;2023-06-26T08:21:46;100303.20;;;28.58
69545;BMP180;56766;52.260;20.746;2023-06-26T08:24:13;100302.00;;;28.74
69545;BMP180;56766;52.260;20.746;2023-06-26T08:26:46;100300.20;;;28.90
69545;BMP180;56766;52.260;20.746;2023-06-26T08:29:14;100291.60;;;29.10
69545;BMP180;56766;52.260;20.746;2023-06-26T08:31:43;100293.40;;;29.00
69545;BMP180;56766;52.260;20.746;2023-06-26T08:34:10;100294.40;;;29.20
69545;BMP180;56766;52.260;20.746;2023-06-26T08:36:37;100288.60;;;29.44
69545;BMP180;56766;52.260;20.746;2023-06-26T08:39:04;100288.80;;;29.68
69545;BMP180;56766;52.260;20.746;2023-06-26T08:41:32;100287.80;;;29.90
69545;BMP180;56766;52.260;20.746;2023-06-26T08:43:59;100286.00;;;29.84
69545;BMP180;56766;52.260;20.746;2023-06-26T08:46:28;100294.40;;;30.00
69545;BMP180;56766;52.260;20.746;2023-06-26T08:49:01;100289.40;;;30.34
69545;BMP180;56766;52.260;20.746;2023-06-26T08:51:32;100288.40;;;30.74
69545;BMP180;56766;52.260;20.746;2023-06-26T08:54:02;100282.80;;;31.10
69545;BMP180;56766;52.260;20.746;2023-06-26T08:56:37;100280.40;;;31.38
69545;BMP180;56766;52.260;20.746;2023-06-26T08:59:07;100282.00;;;31.60
69545;BMP180;56766;52.260;20.746;2023-06-26T09:01:38;100282.80;;;31.44
69545;BMP180;56766;52.260;20.746;2023-06-26T09:04:05;100281.40;;;31.02
69545;BMP180;56766;52.260;20.746;2023-06-26T09:06:33;100283.60;;;30.26
69545;BMP180;56766;52.260;20.746;2023-06-26T09:09:00;100282.40;;;29.62
69545;BMP180;56766;52.260;20.746;2023-06-26T09:11:27;100286.20;;;29.30
69545;BMP180;56766;52.260;20.746;2023-06-26T09:13:55;100289.00;;;29.00
69545;BMP180;56766;52.260;20.746;2023-06-26T09:16:26;100283.80;;;28.70
69545;BMP180;56766;52.260;20.746;2023-06-26T09:18:53;100282.60;;;28.80
69545;BMP180;56766;52.260;20.746;2023-06-26T09:21:22;100282.20;;;28.90
69545;BMP180;56766;52.260;20.746;2023-06-26T09:23:52;100270.80;;;29.16
69545;BMP180;56766;52.260;20.746;2023-06-26T09:26:21;100262.20;;;29.48
69545;BMP180;56766;52.260;20.746;2023-06-26T09:28:48;100264.20;;;29.68
69545;BMP180;56766;52.260;20.746;2023-06-26T09:31:17;100267.00;;;30.10
69545;BMP180;56766;52.260;20.746;2023-06-26T09:33:43;100265.40;;;30.54
69545;BMP180;56766;52.260;20.746;2023-06-26T09:36:20;100268.80;;;31.04
69545;BMP180;56766;52.260;20.746;2023-06-26T09:38:48;100265.80;;;30.96
69545;BMP180;56766;52.260;20.746;2023-06-26T09:41:18;100268.60;;;30.70
69545;BMP180;56766;52.260;20.746;2023-06-26T09:43:50;100271.20;;;30.40
69545;BMP180;56766;52.260;20.746;2023-06-26T09:46:26;100268.00;;;30.20
69545;BMP180;56766;52.260;20.746;2023-06-26T09:49:08;100270.00;;;30.08
69545;BMP180;56766;52.260;20.746;2023-06-26T09:51:41;100266.40;;;30.00
69545;BMP180;56766;52.260;20.746;2023-06-26T09:54:09;100268.40;;;30.30
69545;BMP180;56766;52.260;20.746;2023-06-26T09:56:36;100263.80;;;30.58
69545;BMP180;56766;52.260;20.746;2023-06-26T09:59:06;100263.60;;;31.00
69545;BMP180;56766;52.260;20.746;2023-06-26T10:01:33;100266.20;;;31.20
69545;BMP180;56766;52.260;20.746;2023-06-26T10:04:00;100266.60;;;31.38
69545;BMP180;56766;52.260;20.746;2023-06-26T10:06:46;100264.20;;;31.70
69545;BMP180;56766;52.260;20.746;2023-06-26T10:09:22;100264.00;;;31.80
69545;BMP180;56766;52.260;20.746;2023-06-26T10:14:57;100262.80;;;31.10
69545;BMP180;56766;52.260;20.746;2023-06-26T10:17:31;100262.80;;;30.64
69545;BMP180;56766;52.260;20.746;2023-06-26T10:20:03;100261.40;;;30.20
69545;BMP180;56766;52.260;20.746;2023-06-26T10:22:41;100255.00;;;29.90
69545;BMP180;56766;52.260;20.746;2023-06-26T10:25:12;100256.00;;;30.00
69545;BMP180;56766;52.260;20.746;2023-06-26T10:27:48;100248.40;;;29.90
69545;BMP180;56766;52.260;20.746;2023-06-26T10:30:26;100245.60;;;29.60
69545;BMP180;56766;52.260;20.746;2023-06-26T10:32:56;100247.40;;;29.30
69545;BMP180;56766;52.260;20.746;2023-06-26T10:35:24;100242.20;;;29.00
69545;BMP180;56766;52.260;20.746;2023-06-26T10:37:51;100243.00;;;29.10
69545;BMP180;56766;52.260;20.746;2023-06-26T10:40:26;100236.60;;;29.48
69545;BMP180;56766;52.260;20.746;2023-06-26T10:43:07;100239.00;;;29.90
69545;BMP180;56766;52.260;20.746;2023-06-26T10:45:44;100239.00;;;29.64
69545;BMP180;56766;52.260;20.746;2023-06-26T10:48:15;100242.00;;;29.14
69545;BMP180;56766;52.260;20.746;2023-06-26T10:50:42;100234.40;;;28.86
69545;BMP180;56766;52.260;20.746;2023-06-26T10:53:22;100236.40;;;28.80
69545;BMP180;56766;52.260;20.746;2023-06-26T10:56:01;100237.00;;;29.22
69545;BMP180;56766;52.260;20.746;2023-06-26T11:03:44;100234.00;;;30.56
69545;BMP180;56766;52.260;20.746;2023-06-26T11:14:27;100220.20;;;30.76
69545;BMP180;56766;52.260;20.746;2023-06-26T11:16:57;100216.60;;;30.44
69545;BMP180;56766;52.260;20.746;2023-06-26T11:19:27;100218.40;;;30.14
69545;BMP180;56766;52.260;20.746;2023-06-26T11:22:01;100212.00;;;30.00
69545;BMP180;56766;52.260;20.746;2023-06-26T11:24:29;100211.80;;;30.40
69545;BMP180;56766;52.260;20.746;2023-06-26T11:27:01;100207.20;;;30.80
69545;BMP180;56766;52.260;20.746;2023-06-26T11:29:30;100203.00;;;31.30
69545;BMP180;56766;52.260;20.746;2023-06-26T11:32:03;100201.60;;;31.70
69545;BMP180;56766;52.260;20.746;2023-06-26T11:34:33;100203.20;;;31.70
69545;BMP180;56766;52.260;20.746;2023-06-26T11:37:00;100201.80;;;31.54
69545;BMP180;56766;52.260;20.746;2023-06-26T11:39:28;100204.20;;;31.30
69545;BMP180;56766;52.260;20.746;2023-06-26T11:41:55;100202.40;;;30.92
69545;BMP180;56766;52.260;20.746;2023-06-26T11:44:22;100201.60;;;30.70
69545;BMP180;56766;52.260;20.746;2023-06-26T11:46:52;100199.20;;;30.98
69545;BMP180;56766;52.260;20.746;2023-06-26T11:49:21;100199.60;;;31.24
69545;BMP180;56766;52.260;20.746;2023-06-26T11:51:49;100197.40;;;31.68
69545;BMP180;56766;52.260;20.746;2023-06-26T11:54:24;100192.40;;;32.02
69545;BMP180;56766;52.260;20.746;2023-06-26T11:56:54;100189.60;;;32.50
69545;BMP180;56766;52.260;20.746;2023-06-26T11:59:24;100188.80;;;32.80
69545;BMP180;56766;52.260;20.746;2023-06-26T12:01:58;100180.20;;;32.90
69545;BMP180;56766;52.260;20.746;2023-06-26T12:04:24;100180.00;;;33.20
69545;BMP180;56766;52.260;20.746;2023-06-26T12:06:54;100178.60;;;33.30
69545;BMP180;56766;52.260;20.746;2023-06-26T12:09:26;100177.00;;;33.30
69545;BMP180;56766;52.260;20.746;2023-06-26T12:11:56;100178.40;;;33.50
69545;BMP180;56766;52.260;20.746;2023-06-26T12:14:26;100168.40;;;33.50
69545;BMP180;56766;52.260;20.746;2023-06-26T12:16:55;100165.80;;;33.60
69545;BMP180;56766;52.260;20.746;2023-06-26T12:19:26;100164.00;;;33.86
69545;BMP180;56766;52.260;20.746;2023-06-26T12:21:53;100159.80;;;33.90
69545;BMP180;56766;52.260;20.746;2023-06-26T12:24:24;100165.40;;;33.58
69545;BMP180;56766;52.260;20.746;2023-06-26T12:26:54;100171.40;;;33.60
69545;BMP180;56766;52.260;20.746;2023-06-26T12:29:33;100164.20;;;33.60
69545;BMP180;56766;52.260;20.746;2023-06-26T12:32:01;100162.20;;;33.20
69545;BMP180;56766;52.260;20.746;2023-06-26T12:34:33;100161.60;;;33.40
69545;BMP180;56766;52.260;20.746;2023-06-26T12:37:07;100165.60;;;33.60
69545;BMP180;56766;52.260;20.746;2023-06-26T12:39:55;100160.00;;;33.60
69545;BMP180;56766;52.260;20.746;2023-06-26T12:42:25;100156.60;;;33.50
69545;BMP180;56766;52.260;20.746;2023-06-26T12:44:54;100157.40;;;33.42
69545;BMP180;56766;52.260;20.746;2023-06-26T12:47:27;100153.40;;;33.06
69545;BMP180;56766;52.260;20.746;2023-06-26T12:49:54;100146.20;;;32.46
69545;BMP180;56766;52.260;20.746;2023-06-26T12:52:21;100149.20;;;31.94
69545;BMP180;56766;52.260;20.746;2023-06-26T12:54:53;100149.60;;;31.60
69545;BMP180;56766;52.260;20.746;2023-06-26T12:57:20;100145.60;;;31.50
69545;BMP180;56766;52.260;20.746;2023-06-26T12:59:47;100140.80;;;31.60
69545;BMP180;56766;52.260;20.746;2023-06-26T13:02:14;100136.80;;;31.80
69545;BMP180;56766;52.260;20.746;2023-06-26T13:04:41;100137.00;;;31.90
69545;BMP180;56766;52.260;20.746;2023-06-26T13:07:10;100141.60;;;32.22
69545;BMP180;56766;52.260;20.746;2023-06-26T13:09:38;100137.60;;;32.62
69545;BMP180;56766;52.260;20.746;2023-06-26T13:12:06;100129.40;;;32.94
69545;BMP180;56766;52.260;20.746;2023-06-26T13:14:33;100122.00;;;33.00
69545;BMP180;56766;52.260;20.746;2023-06-26T13:17:01;100117.80;;;33.10
69545;BMP180;56766;52.260;20.746;2023-06-26T13:19:28;100116.00;;;33.16
69545;BMP180;56766;52.260;20.746;2023-06-26T13:21:55;100109.40;;;33.30
69545;BMP180;56766;52.260;20.746;2023-06-26T13:24:22;100118.00;;;33.30
69545;BMP180;56766;52.260;20.746;2023-06-26T13:26:49;100118.20;;;33.10
69545;BMP180;56766;52.260;20.746;2023-06-26T13:29:16;100115.00;;;32.96
69545;BMP180;56766;52.260;20.746;2023-06-26T13:31:42;100113.80;;;32.54
69545;BMP180;56766;52.260;20.746;2023-06-26T13:34:21;100111.00;;;32.12
69545;BMP180;56766;52.260;20.746;2023-06-26T13:36:49;100110.40;;;31.50
69545;BMP180;56766;52.260;20.746;2023-06-26T13:39:15;100111.40;;;31.20
69545;BMP180;56766;52.260;20.746;2023-06-26T13:41:42;100112.80;;;31.00
69545;BMP180;56766;52.260;20.746;2023-06-26T13:44:09;100107.20;;;30.90
69545;BMP180;56766;52.260;20.746;2023-06-26T13:46:35;100104.00;;;30.90
69545;BMP180;56766;52.260;20.746;2023-06-26T13:49:02;100099.20;;;30.90
69545;BMP180;56766;52.260;20.746;2023-06-26T13:51:29;100099.60;;;30.80
69545;BMP180;56766;52.260;20.746;2023-06-26T13:53:55;100086.80;;;31.08
69545;BMP180;56766;52.260;20.746;2023-06-26T13:56:27;100085.20;;;31.34
69545;BMP180;56766;52.260;20.746;2023-06-26T13:58:53;100080.60;;;31.50
69545;BMP180;56766;52.260;20.746;2023-06-26T14:01:20;100076.40;;;31.60
69545;BMP180;56766;52.260;20.746;2023-06-26T14:03:47;100073.80;;;31.50
69545;BMP180;56766;52.260;20.746;2023-06-26T14:06:13;100078.00;;;31.32
69545;BMP180;56766;52.260;20.746;2023-06-26T14:08:40;100076.80;;;31.20
69545;BMP180;56766;52.260;20.746;2023-06-26T14:11:07;100067.40;;;31.00
69545;BMP180;56766;52.260;20.746;2023-06-26T14:13:33;100074.00;;;30.90
69545;BMP180;56766;52.260;20.746;2023-06-26T14:16:00;100070.40;;;30.90